Milos, Greece
Current Conditions -  °F | °C
As of 6:50 PM on Sunday 23 Nov 2014 (Local Time) from LGSR Reporting Station
Broken Clouds Broken Clouds  
Wind Chill: 59°   Ceiling: 2500
Heat Index: 59°   Visibility: 6mi
Dew Point: 45°   Wind: 23mph
Humidity: 59%   Direction: 330°NNW
Pressure: 30.12"   Gusts: 35mph
Location:  36.75°N, 24.43°E
Report Text: LGSR 231550Z 33020G30KT 9999 BKN025 15/07 Q1020
Loading
Personal Weather Stations






























Interactive Weather Map New forecast layout! Learn more

10-Day Weather Forecast

Advertisements
Track Severe Weather on mobile